Terminal Aerodrome Forecast
Issued by NWS Cleveland, OH

Home | Current Version | Previous Version | Graphics & Text | Print | Product List | Glossary Off
Versions: 1 2 3 4 5 6 7 8 9 10 11 12 13

000
FTUS41 KCLE 040524
TAFTOL
TAF
KTOL 040524Z 0406/0506 34002KT P6SM SKC
      TEMPO 0409/0413 4SM BR
     FM041400 32005KT P6SM FEW045
     FM050100 VRB02KT P6SM SKC=

USA.gov is the U.S. government's official web portal to all federal, state and local government web resources and services.